sensor_id;sensor_type;location;lat;lon;timestamp;pressure;altitude;pressure_sealevel;temperature;humidity
59987;BME280;46181;51.498;5.392;2023-06-22T00:04:23;101735.4;;;25.51;43.24512
59987;BME280;46181;51.498;5.392;2023-06-22T00:08:53;101737;;;25.43;43.15527
59987;BME280;46181;51.498;5.392;2023-06-22T00:13:24;101747.2;;;25.34;43.28711
59987;BME280;46181;51.498;5.392;2023-06-22T00:17:54;101744.6;;;25.24;43.69824
59987;BME280;46181;51.498;5.392;2023-06-22T00:22:23;101742.4;;;25.17;44.03125
59987;BME280;46181;51.498;5.392;2023-06-22T00:26:53;101743.3;;;25.08;44.33594
59987;BME280;46181;51.498;5.392;2023-06-22T00:31:23;101740.5;;;25;44.65625
59987;BME280;46181;51.498;5.392;2023-06-22T00:35:53;101739.3;;;24.9;44.56445
59987;BME280;46181;51.498;5.392;2023-06-22T00:40:23;101735.4;;;24.83;44.63867
59987;BME280;46181;51.498;5.392;2023-06-22T00:44:53;101728.5;;;24.77;44.7959
59987;BME280;46181;51.498;5.392;2023-06-22T00:49:23;101739.7;;;24.68;45.0332
59987;BME280;46181;51.498;5.392;2023-06-22T00:53:53;101732.3;;;24.6;45.32715
59987;BME280;46181;51.498;5.392;2023-06-22T00:58:23;101735.9;;;24.54;45.57813
59987;BME280;46181;51.498;5.392;2023-06-22T01:02:53;101731.6;;;24.45;45.91895
59987;BME280;46181;51.498;5.392;2023-06-22T01:07:29;101730.9;;;24.36;46.25977
59987;BME280;46181;51.498;5.392;2023-06-22T01:11:55;101732.5;;;24.34;46.45605
59987;BME280;46181;51.498;5.392;2023-06-22T01:16:27;101726.7;;;24.27;46.82129
59987;BME280;46181;51.498;5.392;2023-06-22T01:20:54;101729.7;;;24.25;47.02832
59987;BME280;46181;51.498;5.392;2023-06-22T01:25:31;101736.1;;;24.21;47.28125
59987;BME280;46181;51.498;5.392;2023-06-22T01:29:55;101737.4;;;24.28;47.54492
59987;BME280;46181;51.498;5.392;2023-06-22T01:34:24;101735.2;;;24.39;47.58008
59987;BME280;46181;51.498;5.392;2023-06-22T01:38:54;101726.5;;;24.43;47.5957
59987;BME280;46181;51.498;5.392;2023-06-22T01:43:24;101722.4;;;24.4;47.68555
59987;BME280;46181;51.498;5.392;2023-06-22T01:47:53;101726.3;;;24.35;47.85547
59987;BME280;46181;51.498;5.392;2023-06-22T01:52:24;101725.9;;;24.28;47.99902
59987;BME280;46181;51.498;5.392;2023-06-22T01:56:53;101720;;;24.18;48.39551
59987;BME280;46181;51.498;5.392;2023-06-22T02:01:27;101721.9;;;24.1;48.77148
59987;BME280;46181;51.498;5.392;2023-06-22T02:05:58;101717;;;24.07;48.89648
59987;BME280;46181;51.498;5.392;2023-06-22T02:10:24;101713.2;;;24.09;48.89844
59987;BME280;46181;51.498;5.392;2023-06-22T02:14:54;101719.2;;;24.09;49.0498
59987;BME280;46181;51.498;5.392;2023-06-22T02:19:26;101720.6;;;24.07;49.1875
59987;BME280;46181;51.498;5.392;2023-06-22T02:23:53;101720.8;;;24.04;49.38281
59987;BME280;46181;51.498;5.392;2023-06-22T02:28:23;101709.1;;;24.02;49.54199
59987;BME280;46181;51.498;5.392;2023-06-22T02:32:53;101701.2;;;23.98;49.6416
59987;BME280;46181;51.498;5.392;2023-06-22T02:37:24;101698.7;;;23.92;49.86914
59987;BME280;46181;51.498;5.392;2023-06-22T02:41:54;101695.9;;;23.85;50.26758
59987;BME280;46181;51.498;5.392;2023-06-22T02:46:23;101697.7;;;23.79;50.65723
59987;BME280;46181;51.498;5.392;2023-06-22T02:50:53;101694.5;;;23.7;50.87891
59987;BME280;46181;51.498;5.392;2023-06-22T02:55:23;101696.1;;;23.6;51.07617
59987;BME280;46181;51.498;5.392;2023-06-22T02:59:54;101697.1;;;23.53;51.34766
59987;BME280;46181;51.498;5.392;2023-06-22T03:04:23;101690;;;23.46;51.53711
59987;BME280;46181;51.498;5.392;2023-06-22T03:08:57;101671;;;23.38;51.80664
59987;BME280;46181;51.498;5.392;2023-06-22T03:13:23;101667.3;;;23.36;51.9209
59987;BME280;46181;51.498;5.392;2023-06-22T03:17:53;101665.9;;;23.35;52.12891
59987;BME280;46181;51.498;5.392;2023-06-22T03:22:23;101662.3;;;23.33;52.19629
59987;BME280;46181;51.498;5.392;2023-06-22T03:26:53;101657.5;;;23.33;52.30078
59987;BME280;46181;51.498;5.392;2023-06-22T03:31:23;101654.8;;;23.3;52.32031
59987;BME280;46181;51.498;5.392;2023-06-22T03:35:53;101657.3;;;23.24;52.54395
59987;BME280;46181;51.498;5.392;2023-06-22T03:40:24;101656.9;;;23.19;52.70117
59987;BME280;46181;51.498;5.392;2023-06-22T03:44:53;101651.4;;;23.14;52.87012
59987;BME280;46181;51.498;5.392;2023-06-22T03:49:23;101648.4;;;23.12;53.05273
59987;BME280;46181;51.498;5.392;2023-06-22T03:53:53;101648.4;;;23.06;53.2207
59987;BME280;46181;51.498;5.392;2023-06-22T03:58:23;101641.3;;;23.02;53.49316
59987;BME280;46181;51.498;5.392;2023-06-22T04:02:53;101644.9;;;23;53.6416
59987;BME280;46181;51.498;5.392;2023-06-22T04:07:23;101650.7;;;23.04;53.7168
59987;BME280;46181;51.498;5.392;2023-06-22T04:11:54;101646.9;;;23.09;53.75684
59987;BME280;46181;51.498;5.392;2023-06-22T04:16:23;101649.2;;;23.19;53.65332
59987;BME280;46181;51.498;5.392;2023-06-22T04:20:53;101644.3;;;23.35;53.37207
59987;BME280;46181;51.498;5.392;2023-06-22T04:25:24;101649;;;23.42;53.21582
59987;BME280;46181;51.498;5.392;2023-06-22T04:29:53;101651.7;;;23.46;53.07031
59987;BME280;46181;51.498;5.392;2023-06-22T04:34:23;101653.5;;;23.53;53.10156
59987;BME280;46181;51.498;5.392;2023-06-22T04:38:53;101653;;;23.71;52.84375
59987;BME280;46181;51.498;5.392;2023-06-22T04:43:23;101656.3;;;23.89;52.44727
59987;BME280;46181;51.498;5.392;2023-06-22T04:47:53;101653.2;;;24.07;52.07324
59987;BME280;46181;51.498;5.392;2023-06-22T04:52:23;101654.3;;;24.21;51.78613
59987;BME280;46181;51.498;5.392;2023-06-22T04:56:54;101648.7;;;24.31;51.62305
59987;BME280;46181;51.498;5.392;2023-06-22T05:01:23;101651.8;;;24.45;51.08105
59987;BME280;46181;51.498;5.392;2023-06-22T05:05:54;101648.8;;;24.59;50.7002
59987;BME280;46181;51.498;5.392;2023-06-22T05:10:24;101641.3;;;24.66;50.29004
59987;BME280;46181;51.498;5.392;2023-06-22T05:14:53;101648.5;;;24.67;50.25488
59987;BME280;46181;51.498;5.392;2023-06-22T05:19:23;101647.5;;;24.79;50.10449
59987;BME280;46181;51.498;5.392;2023-06-22T05:23:53;101646.7;;;24.89;49.86035
59987;BME280;46181;51.498;5.392;2023-06-22T05:28:23;101651.4;;;24.94;49.90039
59987;BME280;46181;51.498;5.392;2023-06-22T05:32:53;101645.2;;;24.96;50.03027
59987;BME280;46181;51.498;5.392;2023-06-22T05:37:23;101641.1;;;25.03;50.08496
59987;BME280;46181;51.498;5.392;2023-06-22T05:41:54;101639.6;;;24.98;50.25488
59987;BME280;46181;51.498;5.392;2023-06-22T05:46:24;101636.1;;;24.91;50.65625
59987;BME280;46181;51.498;5.392;2023-06-22T05:50:54;101645.5;;;24.96;50.85938
59987;BME280;46181;51.498;5.392;2023-06-22T05:55:23;101644.4;;;25.08;50.91895
59987;BME280;46181;51.498;5.392;2023-06-22T05:59:53;101640.1;;;25.2;50.60645
59987;BME280;46181;51.498;5.392;2023-06-22T06:04:24;101644;;;25.32;50.52637
59987;BME280;46181;51.498;5.392;2023-06-22T06:08:54;101639.9;;;25.51;50.39648
59987;BME280;46181;51.498;5.392;2023-06-22T06:13:24;101631.4;;;25.72;49.73047
59987;BME280;46181;51.498;5.392;2023-06-22T06:18:00;101628.4;;;25.8;49.60938
59987;BME280;46181;51.498;5.392;2023-06-22T06:22:24;101635.8;;;25.94;49.6377
59987;BME280;46181;51.498;5.392;2023-06-22T06:26:54;101642.6;;;26.15;49.05273
59987;BME280;46181;51.498;5.392;2023-06-22T06:31:24;101640.5;;;26.2;48.94043
59987;BME280;46181;51.498;5.392;2023-06-22T06:35:53;101636;;;26.36;48.81836
59987;BME280;46181;51.498;5.392;2023-06-22T06:40:24;101634.5;;;26.48;48.64453
59987;BME280;46181;51.498;5.392;2023-06-22T06:44:53;101638.6;;;26.59;48.39746
59987;BME280;46181;51.498;5.392;2023-06-22T06:49:24;101642.4;;;26.73;48.16699
59987;BME280;46181;51.498;5.392;2023-06-22T06:53:54;101643.9;;;26.86;47.85352
59987;BME280;46181;51.498;5.392;2023-06-22T06:58:24;101643.2;;;26.99;47.76172
59987;BME280;46181;51.498;5.392;2023-06-22T07:02:54;101640.9;;;26.96;47.6416
59987;BME280;46181;51.498;5.392;2023-06-22T07:07:24;101637.9;;;26.95;47.66406
59987;BME280;46181;51.498;5.392;2023-06-22T07:11:54;101638;;;26.97;47.60742
59987;BME280;46181;51.498;5.392;2023-06-22T07:16:24;101639;;;26.96;47.59375
59987;BME280;46181;51.498;5.392;2023-06-22T07:20:54;101642.2;;;26.98;47.54785
59987;BME280;46181;51.498;5.392;2023-06-22T07:25:24;101639.3;;;26.94;47.65039
59987;BME280;46181;51.498;5.392;2023-06-22T07:29:54;101638.5;;;26.98;47.71289
59987;BME280;46181;51.498;5.392;2023-06-22T07:34:24;101630;;;26.93;48.46973
59987;BME280;46181;51.498;5.392;2023-06-22T07:38:54;101617.9;;;26.67;49.22559
59987;BME280;46181;51.498;5.392;2023-06-22T07:43:24;101608.1;;;26.48;50.63281
59987;BME280;46181;51.498;5.392;2023-06-22T07:47:53;101596.9;;;26.32;51.66602
59987;BME280;46181;51.498;5.392;2023-06-22T07:52:24;101581.3;;;26.24;52.3125
59987;BME280;46181;51.498;5.392;2023-06-22T07:56:55;101570.1;;;26.17;52.1875
59987;BME280;46181;51.498;5.392;2023-06-22T08:01:23;101562.7;;;26.18;52.55078
59987;BME280;46181;51.498;5.392;2023-06-22T08:05:54;101552.2;;;26.33;52.90723
59987;BME280;46181;51.498;5.392;2023-06-22T08:10:24;101542.1;;;26.54;51.99609
59987;BME280;46181;51.498;5.392;2023-06-22T08:14:54;101533.8;;;26.74;51.1416
59987;BME280;46181;51.498;5.392;2023-06-22T08:19:24;101535.8;;;26.9;50.50391
59987;BME280;46181;51.498;5.392;2023-06-22T08:23:54;101533.9;;;27.04;50.33203
59987;BME280;46181;51.498;5.392;2023-06-22T08:28:24;101526.5;;;27.16;49.44336
59987;BME280;46181;51.498;5.392;2023-06-22T08:32:54;101529.8;;;27.18;49.29297
59987;BME280;46181;51.498;5.392;2023-06-22T08:37:24;101538.3;;;27.23;49.33398
59987;BME280;46181;51.498;5.392;2023-06-22T08:41:54;101537.2;;;27.27;49.0918
59987;BME280;46181;51.498;5.392;2023-06-22T08:46:24;101532.8;;;27.35;48.64453
59987;BME280;46181;51.498;5.392;2023-06-22T08:50:54;101523.2;;;27.38;48.19043
59987;BME280;46181;51.498;5.392;2023-06-22T08:55:24;101520;;;27.38;47.83691
59987;BME280;46181;51.498;5.392;2023-06-22T08:59:54;101518.2;;;27.4;47.4873
59987;BME280;46181;51.498;5.392;2023-06-22T09:04:24;101506.5;;;27.43;47.83008
59987;BME280;46181;51.498;5.392;2023-06-22T09:08:54;101504.2;;;27.5;47.75586
59987;BME280;46181;51.498;5.392;2023-06-22T09:13:24;101503.7;;;27.55;47.86719
59987;BME280;46181;51.498;5.392;2023-06-22T09:17:54;101499.2;;;27.6;47.60156
59987;BME280;46181;51.498;5.392;2023-06-22T09:22:24;101503.4;;;27.67;47.05762
59987;BME280;46181;51.498;5.392;2023-06-22T09:26:54;101496.3;;;27.79;46.2959
59987;BME280;46181;51.498;5.392;2023-06-22T09:31:24;101495.1;;;28;45.4707
59987;BME280;46181;51.498;5.392;2023-06-22T09:35:54;101500.6;;;28.14;44.01563
59987;BME280;46181;51.498;5.392;2023-06-22T09:40:24;101498.3;;;28.31;43.71387
59987;BME280;46181;51.498;5.392;2023-06-22T09:44:54;101493.2;;;28.53;42.7334
59987;BME280;46181;51.498;5.392;2023-06-22T09:49:24;101484.6;;;28.56;42.04199
59987;BME280;46181;51.498;5.392;2023-06-22T09:53:54;101484.3;;;28.64;42.00195
59987;BME280;46181;51.498;5.392;2023-06-22T09:58:24;101484.5;;;28.66;41.65137
59987;BME280;46181;51.498;5.392;2023-06-22T10:02:54;101488.8;;;28.7;41.3584
59987;BME280;46181;51.498;5.392;2023-06-22T10:07:24;101487.8;;;28.67;41.48633
59987;BME280;46181;51.498;5.392;2023-06-22T10:11:54;101486.8;;;28.66;41.35645
59987;BME280;46181;51.498;5.392;2023-06-22T10:16:24;101485.6;;;28.64;41.45996
59987;BME280;46181;51.498;5.392;2023-06-22T10:20:54;101483.3;;;28.61;41.41016
59987;BME280;46181;51.498;5.392;2023-06-22T10:25:24;101487.4;;;28.54;42.12207
59987;BME280;46181;51.498;5.392;2023-06-22T10:29:54;101492.1;;;28.48;42.92871
59987;BME280;46181;51.498;5.392;2023-06-22T10:34:24;101500.6;;;28.26;43.86133
59987;BME280;46181;51.498;5.392;2023-06-22T10:38:54;101501.7;;;27.9;45.61328
59987;BME280;46181;51.498;5.392;2023-06-22T10:43:24;101516.8;;;27.65;46.73926
59987;BME280;46181;51.498;5.392;2023-06-22T10:47:54;101530.9;;;27.52;47.08887
59987;BME280;46181;51.498;5.392;2023-06-22T10:52:24;101537.4;;;27.43;48.53516
59987;BME280;46181;51.498;5.392;2023-06-22T10:56:54;101535.2;;;27.12;50.62305
59987;BME280;46181;51.498;5.392;2023-06-22T11:01:24;101531.8;;;26.79;53.20703
59987;BME280;46181;51.498;5.392;2023-06-22T11:05:54;101540.3;;;26.43;54.87012
59987;BME280;46181;51.498;5.392;2023-06-22T11:10:24;101535.2;;;26.26;56.70508
59987;BME280;46181;51.498;5.392;2023-06-22T11:14:54;101531.7;;;26.03;54.87891
59987;BME280;46181;51.498;5.392;2023-06-22T11:19:24;101534.1;;;25.87;54.71973
59987;BME280;46181;51.498;5.392;2023-06-22T11:23:54;101534.7;;;25.57;54.76563
59987;BME280;46181;51.498;5.392;2023-06-22T11:28:24;101536.5;;;25.3;54.97852
59987;BME280;46181;51.498;5.392;2023-06-22T11:32:54;101540.8;;;25.08;55.66113
59987;BME280;46181;51.498;5.392;2023-06-22T11:37:24;101548.6;;;24.93;55.91113
59987;BME280;46181;51.498;5.392;2023-06-22T11:41:54;101554.8;;;24.95;55.7959
59987;BME280;46181;51.498;5.392;2023-06-22T11:46:24;101524.7;;;24.86;56.13477
59987;BME280;46181;51.498;5.392;2023-06-22T11:50:54;101500.6;;;24.55;58.67578
59987;BME280;46181;51.498;5.392;2023-06-22T11:55:24;101487;;;24.28;61.64648
59987;BME280;46181;51.498;5.392;2023-06-22T11:59:54;101472.1;;;24.07;63.27637
59987;BME280;46181;51.498;5.392;2023-06-22T12:04:24;101478.8;;;23.91;62.9873
59987;BME280;46181;51.498;5.392;2023-06-22T12:08:54;101473.7;;;23.86;63.36328
59987;BME280;46181;51.498;5.392;2023-06-22T12:13:24;101465.2;;;23.81;64.4668
59987;BME280;46181;51.498;5.392;2023-06-22T12:17:54;101456.6;;;23.83;64.95703
59987;BME280;46181;51.498;5.392;2023-06-22T12:22:24;101448.1;;;23.79;65.50684
59987;BME280;46181;51.498;5.392;2023-06-22T12:26:54;101454.8;;;23.8;65.93652
59987;BME280;46181;51.498;5.392;2023-06-22T12:31:24;101471.9;;;23.87;65.59961
59987;BME280;46181;51.498;5.392;2023-06-22T12:35:54;101468.4;;;23.89;65.2666
59987;BME280;46181;51.498;5.392;2023-06-22T12:40:24;101456;;;23.78;65.48047
59987;BME280;46181;51.498;5.392;2023-06-22T12:44:54;101454.6;;;23.58;66.33105
59987;BME280;46181;51.498;5.392;2023-06-22T12:49:24;101451.9;;;23.38;66.45215
59987;BME280;46181;51.498;5.392;2023-06-22T12:53:54;101440.7;;;23.23;66.76465
59987;BME280;46181;51.498;5.392;2023-06-22T12:58:24;101441.7;;;23.18;67.2207
59987;BME280;46181;51.498;5.392;2023-06-22T13:02:54;101429.2;;;23.07;67.50488
59987;BME280;46181;51.498;5.392;2023-06-22T13:07:24;101434.2;;;22.98;67.96484
59987;BME280;46181;51.498;5.392;2023-06-22T13:11:54;101431.9;;;23.03;68.2959
59987;BME280;46181;51.498;5.392;2023-06-22T13:16:24;101429.1;;;23.08;68.19824
59987;BME280;46181;51.498;5.392;2023-06-22T13:20:54;101419.1;;;23.05;68.20605
59987;BME280;46181;51.498;5.392;2023-06-22T13:25:24;101405.3;;;22.95;68.27051
59987;BME280;46181;51.498;5.392;2023-06-22T13:29:54;101390.2;;;22.9;68.44824
59987;BME280;46181;51.498;5.392;2023-06-22T13:34:24;101384.6;;;22.79;68.75488
59987;BME280;46181;51.498;5.392;2023-06-22T13:38:54;101378.8;;;22.75;69.09375
59987;BME280;46181;51.498;5.392;2023-06-22T13:43:24;101369;;;22.69;69.26953
59987;BME280;46181;51.498;5.392;2023-06-22T13:47:54;101371.3;;;22.72;69.59766
59987;BME280;46181;51.498;5.392;2023-06-22T13:52:24;101378.9;;;22.74;69.87695
59987;BME280;46181;51.498;5.392;2023-06-22T13:56:54;101373.8;;;22.75;69.61328
59987;BME280;46181;51.498;5.392;2023-06-22T14:01:24;101370.8;;;22.68;69.83301
59987;BME280;46181;51.498;5.392;2023-06-22T14:05:54;101362.2;;;22.61;69.59082
59987;BME280;46181;51.498;5.392;2023-06-22T14:10:24;101358.4;;;22.54;69.69629
59987;BME280;46181;51.498;5.392;2023-06-22T14:14:54;101361.2;;;22.46;69.5918
59987;BME280;46181;51.498;5.392;2023-06-22T14:19:26;101367.9;;;22.41;69.94043
59987;BME280;46181;51.498;5.392;2023-06-22T14:23:54;101360.6;;;22.4;69.96387
59987;BME280;46181;51.498;5.392;2023-06-22T14:28:24;101354.5;;;22.39;70.08789
59987;BME280;46181;51.498;5.392;2023-06-22T14:32:56;101349.7;;;22.34;70.46094
59987;BME280;46181;51.498;5.392;2023-06-22T14:37:24;101354.7;;;22.37;70.41895
59987;BME280;46181;51.498;5.392;2023-06-22T14:41:56;101345.1;;;22.36;70.53125
59987;BME280;46181;51.498;5.392;2023-06-22T14:46:26;101329.3;;;22.35;70.54102
59987;BME280;46181;51.498;5.392;2023-06-22T14:50:57;101325.1;;;22.4;70.72266
59987;BME280;46181;51.498;5.392;2023-06-22T14:59:54;101330.8;;;22.51;70.62598
59987;BME280;46181;51.498;5.392;2023-06-22T15:04:24;101335.7;;;22.52;70.82227
59987;BME280;46181;51.498;5.392;2023-06-22T15:08:54;101331.2;;;22.53;70.90527
59987;BME280;46181;51.498;5.392;2023-06-22T15:13:24;101335.4;;;22.55;71.21973
59987;BME280;46181;51.498;5.392;2023-06-22T15:17:54;101334.1;;;22.52;71.34082
59987;BME280;46181;51.498;5.392;2023-06-22T15:22:24;101338.7;;;22.51;71.17871
59987;BME280;46181;51.498;5.392;2023-06-22T15:26:54;101345.9;;;22.47;71.18359
59987;BME280;46181;51.498;5.392;2023-06-22T15:31:24;101349.1;;;22.42;71.07129
59987;BME280;46181;51.498;5.392;2023-06-22T15:35:54;101347.6;;;22.36;71.5332
59987;BME280;46181;51.498;5.392;2023-06-22T15:40:24;101339.7;;;22.36;71.53516
59987;BME280;46181;51.498;5.392;2023-06-22T15:44:54;101334;;;22.37;71.73242
59987;BME280;46181;51.498;5.392;2023-06-22T15:49:24;101333;;;22.42;71.86621
59987;BME280;46181;51.498;5.392;2023-06-22T15:53:54;101327.4;;;22.43;71.8916
59987;BME280;46181;51.498;5.392;2023-06-22T15:58:24;101324.9;;;22.46;72.12695
59987;BME280;46181;51.498;5.392;2023-06-22T16:02:55;101321.3;;;22.42;72.62793
59987;BME280;46181;51.498;5.392;2023-06-22T16:07:24;101315.9;;;22.47;72.68066
59987;BME280;46181;51.498;5.392;2023-06-22T16:11:54;101323.4;;;22.5;72.45605
59987;BME280;46181;51.498;5.392;2023-06-22T16:16:24;101324.1;;;22.54;72.49512
59987;BME280;46181;51.498;5.392;2023-06-22T16:20:54;101332.1;;;22.6;72.37891
59987;BME280;46181;51.498;5.392;2023-06-22T16:25:24;101343.8;;;22.61;72.13867
59987;BME280;46181;51.498;5.392;2023-06-22T16:29:54;101338.6;;;22.63;72.24609
59987;BME280;46181;51.498;5.392;2023-06-22T16:34:24;101337.7;;;22.71;72.13281
59987;BME280;46181;51.498;5.392;2023-06-22T16:38:54;101342.3;;;22.75;72.13867
59987;BME280;46181;51.498;5.392;2023-06-22T16:43:24;101344.6;;;22.8;72.02051
59987;BME280;46181;51.498;5.392;2023-06-22T16:47:55;101350.1;;;22.84;71.97949
59987;BME280;46181;51.498;5.392;2023-06-22T16:52:24;101358;;;22.9;71.9668
59987;BME280;46181;51.498;5.392;2023-06-22T16:56:54;101361.5;;;22.97;71.70215
59987;BME280;46181;51.498;5.392;2023-06-22T17:01:25;101369.7;;;23.04;71.6084
59987;BME280;46181;51.498;5.392;2023-06-22T17:05:55;101365.4;;;23.07;71.29102
59987;BME280;46181;51.498;5.392;2023-06-22T17:10:24;101366.8;;;23.07;71.19824
59987;BME280;46181;51.498;5.392;2023-06-22T17:14:54;101371.3;;;23.05;71.1377
59987;BME280;46181;51.498;5.392;2023-06-22T17:19:25;101379.8;;;23.04;71.125
59987;BME280;46181;51.498;5.392;2023-06-22T17:23:55;101374.1;;;23.03;71.18164
59987;BME280;46181;51.498;5.392;2023-06-22T17:28:24;101366.8;;;23;71.1875
59987;BME280;46181;51.498;5.392;2023-06-22T17:32:54;101364;;;22.92;71.38184
59987;BME280;46181;51.498;5.392;2023-06-22T17:37:24;101357.5;;;22.9;71.36621
59987;BME280;46181;51.498;5.392;2023-06-22T17:41:55;101359.7;;;22.84;71.2998
59987;BME280;46181;51.498;5.392;2023-06-22T17:46:24;101373.2;;;22.82;71.33105
59987;BME280;46181;51.498;5.392;2023-06-22T17:50:54;101383.2;;;22.81;71.33105
59987;BME280;46181;51.498;5.392;2023-06-22T17:55:25;101384.9;;;22.77;71.06934
59987;BME280;46181;51.498;5.392;2023-06-22T17:59:55;101392.6;;;22.73;71.10938
59987;BME280;46181;51.498;5.392;2023-06-22T18:04:25;101390.2;;;22.7;71.01367
59987;BME280;46181;51.498;5.392;2023-06-22T18:08:54;101373;;;22.62;70.76953
59987;BME280;46181;51.498;5.392;2023-06-22T18:13:24;101357.9;;;22.51;70.86816
59987;BME280;46181;51.498;5.392;2023-06-22T18:17:55;101355;;;22.46;70.84766
59987;BME280;46181;51.498;5.392;2023-06-22T18:22:24;101358.8;;;22.4;71.27539
59987;BME280;46181;51.498;5.392;2023-06-22T18:26:54;101378.4;;;22.4;71.38086
59987;BME280;46181;51.498;5.392;2023-06-22T18:31:25;101382.8;;;22.44;71.35156
59987;BME280;46181;51.498;5.392;2023-06-22T18:35:54;101373.9;;;22.49;71.37109
59987;BME280;46181;51.498;5.392;2023-06-22T18:40:24;101367.1;;;22.53;71.27441
59987;BME280;46181;51.498;5.392;2023-06-22T18:44:59;101358.6;;;22.54;71.22949
59987;BME280;46181;51.498;5.392;2023-06-22T18:49:29;101362.2;;;22.56;70.88672
59987;BME280;46181;51.498;5.392;2023-06-22T18:54:16;101365.2;;;22.46;70.99805
59987;BME280;46181;51.498;5.392;2023-06-22T18:58:32;101379.9;;;22.51;70.79883
59987;BME280;46181;51.498;5.392;2023-06-22T19:03:01;101378.4;;;22.53;70.57129
59987;BME280;46181;51.498;5.392;2023-06-22T19:07:24;101387.9;;;22.52;70.47754
59987;BME280;46181;51.498;5.392;2023-06-22T19:11:54;101389;;;22.5;70.56543
59987;BME280;46181;51.498;5.392;2023-06-22T19:16:24;101405.2;;;22.52;70.54492
59987;BME280;46181;51.498;5.392;2023-06-22T19:20:59;101414.3;;;22.52;70.52246
59987;BME280;46181;51.498;5.392;2023-06-22T19:25:31;101429.4;;;22.48;70.5625
59987;BME280;46181;51.498;5.392;2023-06-22T19:29:55;101438.7;;;22.51;70.49902
59987;BME280;46181;51.498;5.392;2023-06-22T19:34:24;101453.6;;;22.51;70.46484
59987;BME280;46181;51.498;5.392;2023-06-22T19:38:54;101470.4;;;22.53;70.43262
59987;BME280;46181;51.498;5.392;2023-06-22T19:43:24;101477.7;;;22.53;70.29492
59987;BME280;46181;51.498;5.392;2023-06-22T19:47:55;101490.8;;;22.55;70.05664
59987;BME280;46181;51.498;5.392;2023-06-22T19:52:24;101499.4;;;22.58;69.97852
59987;BME280;46181;51.498;5.392;2023-06-22T19:56:54;101507.1;;;22.53;69.79883
59987;BME280;46181;51.498;5.392;2023-06-22T20:01:24;101525.1;;;22.51;69.8418
59987;BME280;46181;51.498;5.392;2023-06-22T20:05:54;101541.9;;;22.48;69.70996
59987;BME280;46181;51.498;5.392;2023-06-22T20:10:26;101552.4;;;22.46;69.79883
59987;BME280;46181;51.498;5.392;2023-06-22T20:14:54;101553.3;;;22.52;69.87695
59987;BME280;46181;51.498;5.392;2023-06-22T20:19:33;101565.8;;;22.55;69.7666
59987;BME280;46181;51.498;5.392;2023-06-22T20:23:54;101566.2;;;22.59;69.70313
59987;BME280;46181;51.498;5.392;2023-06-22T20:28:25;101557.6;;;22.61;69.62695
59987;BME280;46181;51.498;5.392;2023-06-22T20:33:04;101557.9;;;22.5;69.50684
59987;BME280;46181;51.498;5.392;2023-06-22T20:37:25;101552.5;;;22.46;69.46484
59987;BME280;46181;51.498;5.392;2023-06-22T20:41:54;101542.4;;;22.43;69.66797
59987;BME280;46181;51.498;5.392;2023-06-22T20:46:24;101546.9;;;22.42;69.61914
59987;BME280;46181;51.498;5.392;2023-06-22T20:50:54;101559;;;22.4;69.64063
59987;BME280;46181;51.498;5.392;2023-06-22T20:55:24;101567.2;;;22.4;69.61621
59987;BME280;46181;51.498;5.392;2023-06-22T20:59:54;101567.4;;;22.4;69.61621
59987;BME280;46181;51.498;5.392;2023-06-22T21:04:24;101572.4;;;22.41;69.59473
59987;BME280;46181;51.498;5.392;2023-06-22T21:08:54;101583.6;;;22.44;69.51953
59987;BME280;46181;51.498;5.392;2023-06-22T21:13:24;101591.1;;;22.45;69.40625
59987;BME280;46181;51.498;5.392;2023-06-22T21:17:55;101587;;;22.4;69.3418
59987;BME280;46181;51.498;5.392;2023-06-22T21:22:24;101598.6;;;22.39;69.29102
59987;BME280;46181;51.498;5.392;2023-06-22T21:26:54;101593.1;;;22.36;69.31152
59987;BME280;46181;51.498;5.392;2023-06-22T21:31:24;101599.6;;;22.32;69.24707
59987;BME280;46181;51.498;5.392;2023-06-22T21:35:54;101604.7;;;22.29;69.15039
59987;BME280;46181;51.498;5.392;2023-06-22T21:40:24;101602.8;;;22.23;69.11914
59987;BME280;46181;51.498;5.392;2023-06-22T21:44:54;101603.6;;;22.16;69.17578
59987;BME280;46181;51.498;5.392;2023-06-22T21:49:24;101594.8;;;22.11;69.20313
59987;BME280;46181;51.498;5.392;2023-06-22T21:53:54;101605.9;;;22.09;69.21094
59987;BME280;46181;51.498;5.392;2023-06-22T21:58:24;101602.4;;;22.04;69.2041
59987;BME280;46181;51.498;5.392;2023-06-22T22:02:54;101608.6;;;22.04;69.2627
59987;BME280;46181;51.498;5.392;2023-06-22T22:07:24;101608.8;;;22.01;69.0625
59987;BME280;46181;51.498;5.392;2023-06-22T22:11:54;101604.1;;;21.9;68.9873
59987;BME280;46181;51.498;5.392;2023-06-22T22:16:24;101617.3;;;21.8;69.00684
59987;BME280;46181;51.498;5.392;2023-06-22T22:20:54;101626.2;;;21.7;68.97852
59987;BME280;46181;51.498;5.392;2023-06-22T22:25:24;101633.8;;;21.58;69.03027
59987;BME280;46181;51.498;5.392;2023-06-22T22:29:54;101636;;;21.47;69.05957
59987;BME280;46181;51.498;5.392;2023-06-22T22:34:26;101649.7;;;21.37;69.1123
59987;BME280;46181;51.498;5.392;2023-06-22T22:38:54;101652;;;21.3;69.06836
59987;BME280;46181;51.498;5.392;2023-06-22T22:43:24;101656.8;;;21.2;69.05176
59987;BME280;46181;51.498;5.392;2023-06-22T22:47:54;101658.1;;;21.09;69.02344
59987;BME280;46181;51.498;5.392;2023-06-22T22:52:24;101667.7;;;21.01;69.03418
59987;BME280;46181;51.498;5.392;2023-06-22T22:56:54;101672.3;;;20.91;69.00684
59987;BME280;46181;51.498;5.392;2023-06-22T23:01:24;101694.1;;;20.83;69.0293
59987;BME280;46181;51.498;5.392;2023-06-22T23:05:54;101710.9;;;20.77;69.01953
59987;BME280;46181;51.498;5.392;2023-06-22T23:10:24;101705.8;;;20.67;68.93457